sensor_id;sensor_type;location;lat;lon;timestamp;pressure;altitude;pressure_sealevel;temperature;humidity
72560;BME280;62987;52.382;9.752;2023-07-13T00:00:05;100626.16;;;17.97;100.00
72560;BME280;62987;52.382;9.752;2023-07-13T00:02:40;100599.75;;;17.78;100.00
72560;BME280;62987;52.382;9.752;2023-07-13T00:05:09;100627.78;;;18.00;100.00
72560;BME280;62987;52.382;9.752;2023-07-13T00:07:38;100621.97;;;17.93;100.00
72560;BME280;62987;52.382;9.752;2023-07-13T00:10:08;100631.44;;;17.98;100.00
72560;BME280;62987;52.382;9.752;2023-07-13T00:12:38;100628.44;;;17.90;100.00
72560;BME280;62987;52.382;9.752;2023-07-13T00:15:12;100621.34;;;17.89;100.00
72560;BME280;62987;52.382;9.752;2023-07-13T00:17:43;100634.34;;;17.95;100.00
72560;BME280;62987;52.382;9.752;2023-07-13T00:20:12;100594.31;;;17.67;100.00
72560;BME280;62987;52.382;9.752;2023-07-13T00:22:40;100625.22;;;17.85;100.00
72560;BME280;62987;52.382;9.752;2023-07-13T00:25:10;100639.00;;;17.93;100.00
72560;BME280;62987;52.382;9.752;2023-07-13T00:27:38;100647.06;;;17.93;100.00
72560;BME280;62987;52.382;9.752;2023-07-13T00:30:07;100651.25;;;17.97;100.00
72560;BME280;62987;52.382;9.752;2023-07-13T00:32:36;100644.13;;;17.96;100.00
72560;BME280;62987;52.382;9.752;2023-07-13T00:35:06;100640.94;;;17.91;100.00
72560;BME280;62987;52.382;9.752;2023-07-13T00:37:34;100637.16;;;17.94;100.00
72560;BME280;62987;52.382;9.752;2023-07-13T00:40:04;100633.81;;;17.90;100.00
72560;BME280;62987;52.382;9.752;2023-07-13T00:42:34;100637.06;;;17.83;100.00
72560;BME280;62987;52.382;9.752;2023-07-13T00:45:06;100633.00;;;17.77;100.00
72560;BME280;62987;52.382;9.752;2023-07-13T00:47:35;100630.88;;;17.70;100.00
72560;BME280;62987;52.382;9.752;2023-07-13T00:50:04;100636.38;;;17.68;100.00
72560;BME280;62987;52.382;9.752;2023-07-13T00:52:35;100626.78;;;17.64;100.00
72560;BME280;62987;52.382;9.752;2023-07-13T00:55:06;100633.91;;;17.65;100.00
72560;BME280;62987;52.382;9.752;2023-07-13T00:57:37;100623.56;;;17.59;100.00
72560;BME280;62987;52.382;9.752;2023-07-13T01:00:08;100634.31;;;17.59;100.00
72560;BME280;62987;52.382;9.752;2023-07-13T01:02:37;100636.47;;;17.54;100.00
72560;BME280;62987;52.382;9.752;2023-07-13T01:05:09;100628.84;;;17.48;100.00
72560;BME280;62987;52.382;9.752;2023-07-13T01:07:38;100602.97;;;17.22;100.00
72560;BME280;62987;52.382;9.752;2023-07-13T01:10:07;100631.03;;;17.43;100.00
72560;BME280;62987;52.382;9.752;2023-07-13T01:12:37;100628.34;;;17.43;100.00
72560;BME280;62987;52.382;9.752;2023-07-13T01:15:32;100596.09;;;17.17;100.00
72560;BME280;62987;52.382;9.752;2023-07-13T01:17:54;100624.03;;;17.28;100.00
72560;BME280;62987;52.382;9.752;2023-07-13T01:20:25;100621.56;;;17.25;100.00
72560;BME280;62987;52.382;9.752;2023-07-13T01:22:54;100625.22;;;17.24;100.00
72560;BME280;62987;52.382;9.752;2023-07-13T01:25:22;100632.00;;;17.16;100.00
72560;BME280;62987;52.382;9.752;2023-07-13T01:27:50;100610.81;;;16.99;100.00
72560;BME280;62987;52.382;9.752;2023-07-13T01:30:19;100626.84;;;17.13;100.00
72560;BME280;62987;52.382;9.752;2023-07-13T01:32:47;100619.97;;;17.09;100.00
72560;BME280;62987;52.382;9.752;2023-07-13T01:35:15;100631.69;;;17.08;100.00
72560;BME280;62987;52.382;9.752;2023-07-13T01:37:43;100615.13;;;17.02;100.00
72560;BME280;62987;52.382;9.752;2023-07-13T01:40:13;100626.06;;;17.11;100.00
72560;BME280;62987;52.382;9.752;2023-07-13T01:42:41;100617.16;;;16.98;100.00
72560;BME280;62987;52.382;9.752;2023-07-13T01:45:09;100636.09;;;17.09;100.00
72560;BME280;62987;52.382;9.752;2023-07-13T01:47:37;100631.44;;;17.11;100.00
72560;BME280;62987;52.382;9.752;2023-07-13T01:50:05;100629.00;;;17.08;100.00
72560;BME280;62987;52.382;9.752;2023-07-13T01:52:33;100635.66;;;17.15;100.00
72560;BME280;62987;52.382;9.752;2023-07-13T01:55:02;100630.28;;;17.15;100.00
72560;BME280;62987;52.382;9.752;2023-07-13T01:57:31;100622.13;;;17.04;100.00
72560;BME280;62987;52.382;9.752;2023-07-13T02:00:02;100627.28;;;17.07;100.00
72560;BME280;62987;52.382;9.752;2023-07-13T02:02:41;100632.13;;;17.15;100.00
72560;BME280;62987;52.382;9.752;2023-07-13T02:05:12;100641.47;;;17.09;100.00
72560;BME280;62987;52.382;9.752;2023-07-13T02:07:42;100643.41;;;17.07;100.00
72560;BME280;62987;52.382;9.752;2023-07-13T02:10:10;100625.44;;;16.95;100.00
72560;BME280;62987;52.382;9.752;2023-07-13T02:12:40;100648.13;;;17.04;100.00
72560;BME280;62987;52.382;9.752;2023-07-13T02:15:09;100651.97;;;17.00;100.00
72560;BME280;62987;52.382;9.752;2023-07-13T02:17:38;100655.19;;;16.92;100.00
72560;BME280;62987;52.382;9.752;2023-07-13T02:20:07;100641.22;;;16.87;100.00
72560;BME280;62987;52.382;9.752;2023-07-13T02:22:36;100655.84;;;16.83;100.00
72560;BME280;62987;52.382;9.752;2023-07-13T02:25:04;100620.00;;;16.57;100.00
72560;BME280;62987;52.382;9.752;2023-07-13T02:27:33;100649.59;;;16.70;100.00
72560;BME280;62987;52.382;9.752;2023-07-13T02:30:02;100653.88;;;16.72;100.00
72560;BME280;62987;52.382;9.752;2023-07-13T02:32:30;100651.75;;;16.65;100.00
72560;BME280;62987;52.382;9.752;2023-07-13T02:34:59;100653.16;;;16.70;100.00
72560;BME280;62987;52.382;9.752;2023-07-13T02:37:28;100660.34;;;16.70;100.00
72560;BME280;62987;52.382;9.752;2023-07-13T02:39:56;100662.06;;;16.71;100.00
72560;BME280;62987;52.382;9.752;2023-07-13T02:42:24;100660.13;;;16.73;100.00
72560;BME280;62987;52.382;9.752;2023-07-13T02:44:52;100667.53;;;16.69;100.00
72560;BME280;62987;52.382;9.752;2023-07-13T02:47:22;100662.50;;;16.65;100.00
72560;BME280;62987;52.382;9.752;2023-07-13T02:49:52;100651.50;;;16.68;100.00
72560;BME280;62987;52.382;9.752;2023-07-13T02:52:20;100650.75;;;16.66;100.00
72560;BME280;62987;52.382;9.752;2023-07-13T02:54:48;100656.88;;;16.68;100.00
72560;BME280;62987;52.382;9.752;2023-07-13T02:57:16;100654.03;;;16.57;100.00
72560;BME280;62987;52.382;9.752;2023-07-13T02:59:44;100652.59;;;16.65;100.00
72560;BME280;62987;52.382;9.752;2023-07-13T03:02:12;100657.13;;;16.65;100.00
72560;BME280;62987;52.382;9.752;2023-07-13T03:04:42;100651.50;;;16.68;100.00
72560;BME280;62987;52.382;9.752;2023-07-13T03:07:10;100666.22;;;16.62;100.00
72560;BME280;62987;52.382;9.752;2023-07-13T03:09:39;100660.47;;;16.54;100.00
72560;BME280;62987;52.382;9.752;2023-07-13T03:12:08;100664.03;;;16.55;100.00
72560;BME280;62987;52.382;9.752;2023-07-13T03:14:36;100667.13;;;16.49;100.00
72560;BME280;62987;52.382;9.752;2023-07-13T03:17:06;100669.03;;;16.47;100.00
72560;BME280;62987;52.382;9.752;2023-07-13T03:19:37;100662.72;;;16.48;100.00
72560;BME280;62987;52.382;9.752;2023-07-13T03:22:07;100670.75;;;16.48;100.00
72560;BME280;62987;52.382;9.752;2023-07-13T03:24:37;100664.66;;;16.46;100.00
72560;BME280;62987;52.382;9.752;2023-07-13T03:27:07;100626.03;;;16.34;100.00
72560;BME280;62987;52.382;9.752;2023-07-13T03:29:38;100652.28;;;16.43;100.00
72560;BME280;62987;52.382;9.752;2023-07-13T03:32:07;100663.03;;;16.43;100.00
72560;BME280;62987;52.382;9.752;2023-07-13T03:34:35;100653.16;;;16.44;100.00
72560;BME280;62987;52.382;9.752;2023-07-13T03:37:04;100649.78;;;16.40;100.00
72560;BME280;62987;52.382;9.752;2023-07-13T03:39:36;100662.44;;;16.52;100.00
72560;BME280;62987;52.382;9.752;2023-07-13T03:42:05;100662.53;;;16.51;100.00
72560;BME280;62987;52.382;9.752;2023-07-13T03:44:34;100659.84;;;16.51;100.00
72560;BME280;62987;52.382;9.752;2023-07-13T03:47:03;100661.75;;;16.49;100.00
72560;BME280;62987;52.382;9.752;2023-07-13T03:49:32;100661.34;;;16.55;100.00
72560;BME280;62987;52.382;9.752;2023-07-13T03:52:00;100659.41;;;16.57;100.00
72560;BME280;62987;52.382;9.752;2023-07-13T03:54:29;100662.28;;;16.54;100.00
72560;BME280;62987;52.382;9.752;2023-07-13T03:56:59;100668.53;;;16.54;100.00
72560;BME280;62987;52.382;9.752;2023-07-13T03:59:29;100675.25;;;16.61;100.00
72560;BME280;62987;52.382;9.752;2023-07-13T04:01:57;100643.50;;;16.54;100.00
72560;BME280;62987;52.382;9.752;2023-07-13T04:04:25;100671.97;;;16.83;100.00
72560;BME280;62987;52.382;9.752;2023-07-13T04:06:53;100671.75;;;16.86;100.00
72560;BME280;62987;52.382;9.752;2023-07-13T04:09:21;100664.88;;;16.82;100.00
72560;BME280;62987;52.382;9.752;2023-07-13T04:11:50;100669.81;;;16.88;100.00
72560;BME280;62987;52.382;9.752;2023-07-13T04:14:19;100670.34;;;16.93;100.00
72560;BME280;62987;52.382;9.752;2023-07-13T04:16:47;100691.88;;;17.06;100.00
72560;BME280;62987;52.382;9.752;2023-07-13T04:19:15;100679.72;;;17.00;100.00
72560;BME280;62987;52.382;9.752;2023-07-13T04:21:43;100645.53;;;16.77;100.00
72560;BME280;62987;52.382;9.752;2023-07-13T04:24:12;100693.69;;;17.05;100.00
72560;BME280;62987;52.382;9.752;2023-07-13T04:26:40;100685.75;;;17.04;100.00
72560;BME280;62987;52.382;9.752;2023-07-13T04:29:08;100688.13;;;17.08;100.00
72560;BME280;62987;52.382;9.752;2023-07-13T04:31:37;100692.63;;;17.08;100.00
72560;BME280;62987;52.382;9.752;2023-07-13T04:34:05;100681.44;;;17.01;100.00
72560;BME280;62987;52.382;9.752;2023-07-13T04:36:33;100669.63;;;16.91;100.00
72560;BME280;62987;52.382;9.752;2023-07-13T04:39:04;100690.56;;;16.99;100.00
72560;BME280;62987;52.382;9.752;2023-07-13T04:41:33;100700.69;;;16.95;100.00
72560;BME280;62987;52.382;9.752;2023-07-13T04:44:01;100686.16;;;16.85;100.00
72560;BME280;62987;52.382;9.752;2023-07-13T04:46:30;100655.19;;;16.79;100.00
72560;BME280;62987;52.382;9.752;2023-07-13T04:49:00;100699.31;;;17.15;100.00
72560;BME280;62987;52.382;9.752;2023-07-13T04:51:30;100690.47;;;17.13;100.00
72560;BME280;62987;52.382;9.752;2023-07-13T04:53:58;100690.72;;;17.23;100.00
72560;BME280;62987;52.382;9.752;2023-07-13T04:56:27;100687.38;;;17.32;100.00
72560;BME280;62987;52.382;9.752;2023-07-13T04:58:57;100674.88;;;17.31;100.00
72560;BME280;62987;52.382;9.752;2023-07-13T05:01:25;100699.41;;;17.51;100.00
72560;BME280;62987;52.382;9.752;2023-07-13T05:03:54;100685.09;;;17.51;100.00
72560;BME280;62987;52.382;9.752;2023-07-13T05:06:25;100663.31;;;17.92;100.00
72560;BME280;62987;52.382;9.752;2023-07-13T05:08:53;100687.13;;;17.85;100.00
72560;BME280;62987;52.382;9.752;2023-07-13T05:11:21;100699.81;;;17.83;100.00
72560;BME280;62987;52.382;9.752;2023-07-13T05:13:55;100671.13;;;17.71;100.00
72560;BME280;62987;52.382;9.752;2023-07-13T05:16:24;100704.75;;;17.89;100.00
72560;BME280;62987;52.382;9.752;2023-07-13T05:18:53;100702.78;;;18.04;100.00
72560;BME280;62987;52.382;9.752;2023-07-13T05:21:21;100699.03;;;18.07;100.00
72560;BME280;62987;52.382;9.752;2023-07-13T05:23:50;100705.00;;;18.23;100.00
72560;BME280;62987;52.382;9.752;2023-07-13T05:26:18;100678.94;;;18.23;100.00
72560;BME280;62987;52.382;9.752;2023-07-13T05:28:47;100700.22;;;18.39;100.00
72560;BME280;62987;52.382;9.752;2023-07-13T05:31:17;100714.41;;;18.41;100.00
72560;BME280;62987;52.382;9.752;2023-07-13T05:33:45;100708.56;;;18.47;100.00
72560;BME280;62987;52.382;9.752;2023-07-13T05:36:15;100719.50;;;18.33;100.00
72560;BME280;62987;52.382;9.752;2023-07-13T05:38:43;100710.38;;;18.23;100.00
72560;BME280;62987;52.382;9.752;2023-07-13T05:41:12;100718.72;;;18.44;100.00
72560;BME280;62987;52.382;9.752;2023-07-13T05:43:40;100722.34;;;18.55;100.00
72560;BME280;62987;52.382;9.752;2023-07-13T05:46:08;100720.44;;;18.45;100.00
72560;BME280;62987;52.382;9.752;2023-07-13T05:48:36;100730.81;;;18.38;100.00
72560;BME280;62987;52.382;9.752;2023-07-13T05:51:04;100724.28;;;18.53;100.00
72560;BME280;62987;52.382;9.752;2023-07-13T05:53:33;100735.91;;;18.66;100.00
72560;BME280;62987;52.382;9.752;2023-07-13T05:56:01;100735.06;;;18.77;100.00
72560;BME280;62987;52.382;9.752;2023-07-13T05:58:31;100742.28;;;18.76;100.00
72560;BME280;62987;52.382;9.752;2023-07-13T06:01:04;100742.44;;;18.86;100.00
72560;BME280;62987;52.382;9.752;2023-07-13T06:03:33;100716.56;;;18.72;100.00
72560;BME280;62987;52.382;9.752;2023-07-13T06:06:01;100734.06;;;19.02;100.00
72560;BME280;62987;52.382;9.752;2023-07-13T06:08:29;100725.97;;;19.02;100.00
72560;BME280;62987;52.382;9.752;2023-07-13T06:11:02;100731.44;;;19.24;100.00
72560;BME280;62987;52.382;9.752;2023-07-13T06:13:32;100741.75;;;19.30;100.00
72560;BME280;62987;52.382;9.752;2023-07-13T06:16:01;100732.69;;;19.31;100.00
72560;BME280;62987;52.382;9.752;2023-07-13T06:18:32;100732.44;;;19.34;100.00
72560;BME280;62987;52.382;9.752;2023-07-13T06:21:04;100726.59;;;19.51;100.00
72560;BME280;62987;52.382;9.752;2023-07-13T06:23:33;100741.22;;;19.60;100.00
72560;BME280;62987;52.382;9.752;2023-07-13T06:26:00;100742.19;;;19.59;100.00
72560;BME280;62987;52.382;9.752;2023-07-13T06:28:29;100746.22;;;19.65;100.00
72560;BME280;62987;52.382;9.752;2023-07-13T06:30:59;100733.97;;;19.61;100.00
72560;BME280;62987;52.382;9.752;2023-07-13T06:33:28;100755.78;;;19.58;100.00
72560;BME280;62987;52.382;9.752;2023-07-13T06:35:56;100756.91;;;19.55;100.00
72560;BME280;62987;52.382;9.752;2023-07-13T06:38:24;100742.94;;;19.50;100.00
72560;BME280;62987;52.382;9.752;2023-07-13T06:40:52;100732.81;;;19.41;100.00
72560;BME280;62987;52.382;9.752;2023-07-13T06:43:20;100750.66;;;19.54;100.00
72560;BME280;62987;52.382;9.752;2023-07-13T06:45:48;100760.47;;;19.55;100.00
72560;BME280;62987;52.382;9.752;2023-07-13T06:58:03;100750.69;;;19.77;100.00
72560;BME280;62987;52.382;9.752;2023-07-13T07:00:31;100751.63;;;19.65;100.00
72560;BME280;62987;52.382;9.752;2023-07-13T07:02:59;100759.34;;;19.58;100.00
72560;BME280;62987;52.382;9.752;2023-07-13T07:05:27;100748.31;;;19.72;100.00
72560;BME280;62987;52.382;9.752;2023-07-13T07:07:55;100742.31;;;19.69;100.00
72560;BME280;62987;52.382;9.752;2023-07-13T07:10:24;100756.53;;;19.71;100.00
72560;BME280;62987;52.382;9.752;2023-07-13T07:12:52;100760.50;;;19.89;100.00
72560;BME280;62987;52.382;9.752;2023-07-13T07:15:21;100740.59;;;20.12;100.00
72560;BME280;62987;52.382;9.752;2023-07-13T07:17:49;100745.75;;;20.38;100.00
72560;BME280;62987;52.382;9.752;2023-07-13T07:20:18;100765.38;;;20.83;100.00
72560;BME280;62987;52.382;9.752;2023-07-13T07:22:49;100767.50;;;20.79;100.00
72560;BME280;62987;52.382;9.752;2023-07-13T07:25:17;100740.00;;;20.63;100.00
72560;BME280;62987;52.382;9.752;2023-07-13T07:27:45;100761.41;;;20.66;100.00
72560;BME280;62987;52.382;9.752;2023-07-13T07:30:16;100770.91;;;21.13;100.00
72560;BME280;62987;52.382;9.752;2023-07-13T07:32:48;100761.84;;;21.35;100.00
72560;BME280;62987;52.382;9.752;2023-07-13T07:35:19;100778.50;;;21.51;100.00
72560;BME280;62987;52.382;9.752;2023-07-13T07:37:47;100774.00;;;21.40;100.00
72560;BME280;62987;52.382;9.752;2023-07-13T07:40:17;100766.63;;;21.10;100.00
72560;BME280;62987;52.382;9.752;2023-07-13T07:42:48;100749.72;;;20.97;100.00
72560;BME280;62987;52.382;9.752;2023-07-13T07:45:16;100774.75;;;21.10;100.00
72560;BME280;62987;52.382;9.752;2023-07-13T07:47:44;100771.75;;;20.93;100.00
72560;BME280;62987;52.382;9.752;2023-07-13T07:50:14;100753.09;;;20.47;100.00
72560;BME280;62987;52.382;9.752;2023-07-13T07:52:42;100752.66;;;20.62;100.00
72560;BME280;62987;52.382;9.752;2023-07-13T07:55:11;100775.63;;;20.79;100.00
72560;BME280;62987;52.382;9.752;2023-07-13T07:57:42;100777.53;;;20.88;100.00
72560;BME280;62987;52.382;9.752;2023-07-13T08:00:13;100767.22;;;20.82;100.00
72560;BME280;62987;52.382;9.752;2023-07-13T08:02:46;100769.34;;;20.79;100.00
72560;BME280;62987;52.382;9.752;2023-07-13T08:05:19;100774.66;;;20.69;100.00
72560;BME280;62987;52.382;9.752;2023-07-13T08:08:02;100781.97;;;20.46;100.00
72560;BME280;62987;52.382;9.752;2023-07-13T08:10:30;100771.75;;;20.50;100.00
72560;BME280;62987;52.382;9.752;2023-07-13T08:12:58;100762.78;;;20.49;100.00
72560;BME280;62987;52.382;9.752;2023-07-13T08:15:29;100779.38;;;20.45;100.00
72560;BME280;62987;52.382;9.752;2023-07-13T08:17:57;100761.28;;;20.99;100.00
72560;BME280;62987;52.382;9.752;2023-07-13T08:20:27;100780.34;;;20.98;100.00
72560;BME280;62987;52.382;9.752;2023-07-13T08:22:55;100754.16;;;20.87;100.00
72560;BME280;62987;52.382;9.752;2023-07-13T08:25:23;100779.69;;;21.05;100.00
72560;BME280;62987;52.382;9.752;2023-07-13T08:27:51;100767.97;;;21.16;100.00
72560;BME280;62987;52.382;9.752;2023-07-13T08:30:19;100782.25;;;21.18;100.00
72560;BME280;62987;52.382;9.752;2023-07-13T08:32:47;100776.88;;;20.64;100.00
72560;BME280;62987;52.382;9.752;2023-07-13T08:35:16;100781.31;;;20.65;100.00
72560;BME280;62987;52.382;9.752;2023-07-13T08:37:45;100781.06;;;21.00;100.00
72560;BME280;62987;52.382;9.752;2023-07-13T08:40:14;100764.31;;;21.06;100.00
72560;BME280;62987;52.382;9.752;2023-07-13T08:42:45;100755.97;;;21.30;100.00
72560;BME280;62987;52.382;9.752;2023-07-13T08:45:17;100762.09;;;20.79;100.00
72560;BME280;62987;52.382;9.752;2023-07-13T08:47:53;100788.66;;;20.74;100.00
72560;BME280;62987;52.382;9.752;2023-07-13T08:50:25;100742.06;;;21.02;100.00
72560;BME280;62987;52.382;9.752;2023-07-13T08:52:57;100772.69;;;21.86;100.00
72560;BME280;62987;52.382;9.752;2023-07-13T08:55:29;100763.81;;;21.74;100.00
72560;BME280;62987;52.382;9.752;2023-07-13T08:58:01;100766.06;;;22.99;100.00
72560;BME280;62987;52.382;9.752;2023-07-13T09:00:36;100775.91;;;22.81;100.00
72560;BME280;62987;52.382;9.752;2023-07-13T09:03:15;100781.84;;;22.65;100.00
72560;BME280;62987;52.382;9.752;2023-07-13T09:05:50;100786.47;;;23.22;100.00
72560;BME280;62987;52.382;9.752;2023-07-13T09:08:33;100781.78;;;23.05;100.00
72560;BME280;62987;52.382;9.752;2023-07-13T09:11:18;100778.84;;;22.09;100.00
72560;BME280;62987;52.382;9.752;2023-07-13T09:13:56;100783.41;;;22.18;100.00
72560;BME280;62987;52.382;9.752;2023-07-13T09:16:28;100770.22;;;21.73;100.00
72560;BME280;62987;52.382;9.752;2023-07-13T09:19:00;100790.53;;;21.88;100.00
72560;BME280;62987;52.382;9.752;2023-07-13T09:21:31;100781.47;;;21.78;100.00
72560;BME280;62987;52.382;9.752;2023-07-13T09:24:23;100799.00;;;21.74;100.00
72560;BME280;62987;52.382;9.752;2023-07-13T09:26:55;100796.09;;;21.66;100.00
72560;BME280;62987;52.382;9.752;2023-07-13T09:29:28;100771.09;;;22.04;100.00
72560;BME280;62987;52.382;9.752;2023-07-13T09:32:01;100788.28;;;22.24;100.00
72560;BME280;62987;52.382;9.752;2023-07-13T09:34:32;100790.00;;;22.25;100.00
72560;BME280;62987;52.382;9.752;2023-07-13T09:37:01;100798.06;;;22.46;100.00
72560;BME280;62987;52.382;9.752;2023-07-13T09:39:33;100749.72;;;22.60;100.00
72560;BME280;62987;52.382;9.752;2023-07-13T09:42:11;100788.50;;;23.10;100.00
72560;BME280;62987;52.382;9.752;2023-07-13T09:44:51;100763.88;;;22.24;100.00
72560;BME280;62987;52.382;9.752;2023-07-13T09:47:29;100781.63;;;22.28;100.00
72560;BME280;62987;52.382;9.752;2023-07-13T09:50:04;100763.56;;;21.77;100.00
72560;BME280;62987;52.382;9.752;2023-07-13T09:52:41;100788.47;;;21.71;100.00
72560;BME280;62987;52.382;9.752;2023-07-13T09:55:26;100776.22;;;22.38;100.00
72560;BME280;62987;52.382;9.752;2023-07-13T09:57:54;100785.94;;;22.40;100.00
72560;BME280;62987;52.382;9.752;2023-07-13T10:00:25;100784.72;;;22.23;100.00
72560;BME280;62987;52.382;9.752;2023-07-13T10:03:02;100765.34;;;22.28;100.00
72560;BME280;62987;52.382;9.752;2023-07-13T10:05:39;100795.00;;;22.20;100.00
72560;BME280;62987;52.382;9.752;2023-07-13T10:08:17;100765.75;;;21.93;100.00
72560;BME280;62987;52.382;9.752;2023-07-13T10:10:47;100797.75;;;22.39;100.00
72560;BME280;62987;52.382;9.752;2023-07-13T10:13:26;100801.53;;;22.57;100.00
72560;BME280;62987;52.382;9.752;2023-07-13T10:15:55;100779.66;;;22.49;100.00
72560;BME280;62987;52.382;9.752;2023-07-13T10:18:25;100792.19;;;22.81;100.00
72560;BME280;62987;52.382;9.752;2023-07-13T10:21:00;100797.34;;;23.03;100.00
72560;BME280;62987;52.382;9.752;2023-07-13T10:24:00;100775.19;;;23.07;100.00
72560;BME280;62987;52.382;9.752;2023-07-13T10:26:34;100766.19;;;23.36;95.48
72560;BME280;62987;52.382;9.752;2023-07-13T10:29:05;100757.63;;;22.83;100.00
72560;BME280;62987;52.382;9.752;2023-07-13T10:31:39;100793.06;;;23.10;98.84
72560;BME280;62987;52.382;9.752;2023-07-13T10:34:09;100792.63;;;23.24;98.09
72560;BME280;62987;52.382;9.752;2023-07-13T10:36:40;100791.22;;;23.01;100.00
72560;BME280;62987;52.382;9.752;2023-07-13T10:39:16;100794.59;;;22.84;98.88
72560;BME280;62987;52.382;9.752;2023-07-13T10:41:50;100770.19;;;23.03;98.55
72560;BME280;62987;52.382;9.752;2023-07-13T10:44:23;100789.47;;;23.29;94.61
72560;BME280;62987;52.382;9.752;2023-07-13T10:46:57;100788.25;;;23.89;85.15
72560;BME280;62987;52.382;9.752;2023-07-13T10:49:28;100787.38;;;23.98;84.82
72560;BME280;62987;52.382;9.752;2023-07-13T10:51:57;100791.84;;;24.26;82.82
72560;BME280;62987;52.382;9.752;2023-07-13T10:54:31;100786.31;;;23.62;86.70
72560;BME280;62987;52.382;9.752;2023-07-13T10:57:19;100792.34;;;23.37;90.89
72560;BME280;62987;52.382;9.752;2023-07-13T10:59:49;100790.91;;;23.04;95.69
72560;BME280;62987;52.382;9.752;2023-07-13T11:02:40;100799.75;;;23.44;91.49
72560;BME280;62987;52.382;9.752;2023-07-13T11:05:26;100785.47;;;23.42;92.19
72560;BME280;62987;52.382;9.752;2023-07-13T11:08:03;100800.97;;;23.88;87.98
72560;BME280;62987;52.382;9.752;2023-07-13T11:10:50;100787.03;;;24.11;86.13
72560;BME280;62987;52.382;9.752;2023-07-13T11:13:56;100788.84;;;23.73;86.91
72560;BME280;62987;52.382;9.752;2023-07-13T11:16:42;100795.78;;;23.39;88.28
72560;BME280;62987;52.382;9.752;2023-07-13T11:19:39;100795.03;;;23.27;92.31
72560;BME280;62987;52.382;9.752;2023-07-13T11:22:41;100787.94;;;23.07;95.12
72560;BME280;62987;52.382;9.752;2023-07-13T11:25:28;100806.63;;;22.91;98.93
72560;BME280;62987;52.382;9.752;2023-07-13T11:28:16;100792.63;;;23.05;98.88
72560;BME280;62987;52.382;9.752;2023-07-13T11:30:48;100786.31;;;22.95;99.54
72560;BME280;62987;52.382;9.752;2023-07-13T11:33:20;100767.06;;;23.17;98.87
72560;BME280;62987;52.382;9.752;2023-07-13T11:35:58;100730.88;;;23.36;90.52
72560;BME280;62987;52.382;9.752;2023-07-13T11:38:32;100776.34;;;24.37;86.57
72560;BME280;62987;52.382;9.752;2023-07-13T11:41:04;100780.06;;;25.69;78.03
72560;BME280;62987;52.382;9.752;2023-07-13T11:43:34;100761.41;;;26.50;64.27
72560;BME280;62987;52.382;9.752;2023-07-13T11:46:20;100773.50;;;27.79;55.20
72560;BME280;62987;52.382;9.752;2023-07-13T11:48:53;100742.19;;;27.81;53.73
72560;BME280;62987;52.382;9.752;2023-07-13T11:51:24;100744.75;;;27.83;53.44
72560;BME280;62987;52.382;9.752;2023-07-13T11:53:54;100768.38;;;27.35;56.71
72560;BME280;62987;52.382;9.752;2023-07-13T11:56:25;100754.84;;;28.38;51.17
72560;BME280;62987;52.382;9.752;2023-07-13T11:58:56;100761.53;;;27.80;49.97
72560;BME280;62987;52.382;9.752;2023-07-13T12:01:30;100770.47;;;28.60;48.72
72560;BME280;62987;52.382;9.752;2023-07-13T12:04:01;100771.31;;;28.21;48.22
72560;BME280;62987;52.382;9.752;2023-07-13T12:06:31;100763.88;;;26.86;52.08
72560;BME280;62987;52.382;9.752;2023-07-13T12:09:01;100774.28;;;26.24;56.54
72560;BME280;62987;52.382;9.752;2023-07-13T12:11:35;100761.75;;;25.87;59.58
72560;BME280;62987;52.382;9.752;2023-07-13T12:14:13;100767.31;;;27.85;48.65
72560;BME280;62987;52.382;9.752;2023-07-13T12:16:44;100763.06;;;27.42;49.67
72560;BME280;62987;52.382;9.752;2023-07-13T12:19:17;100767.31;;;27.93;48.16
72560;BME280;62987;52.382;9.752;2023-07-13T12:21:47;100767.81;;;29.06;45.13
72560;BME280;62987;52.382;9.752;2023-07-13T12:24:17;100762.25;;;29.89;43.43
72560;BME280;62987;52.382;9.752;2023-07-13T12:26:50;100778.13;;;29.49;43.29
72560;BME280;62987;52.382;9.752;2023-07-13T12:29:19;100770.16;;;29.92;41.61
72560;BME280;62987;52.382;9.752;2023-07-13T12:31:49;100772.75;;;29.10;43.11
72560;BME280;62987;52.382;9.752;2023-07-13T12:34:21;100687.78;;;26.91;50.28
72560;BME280;62987;52.382;9.752;2023-07-13T12:36:52;100801.66;;;26.22;55.23
72560;BME280;62987;52.382;9.752;2023-07-13T12:39:23;100795.31;;;26.98;52.88
72560;BME280;62987;52.382;9.752;2023-07-13T12:42:00;100748.09;;;28.17;46.04
72560;BME280;62987;52.382;9.752;2023-07-13T12:44:40;100755.94;;;28.90;43.42
72560;BME280;62987;52.382;9.752;2023-07-13T12:47:13;100738.44;;;29.37;40.59
72560;BME280;62987;52.382;9.752;2023-07-13T12:49:44;100769.66;;;29.73;39.42
72560;BME280;62987;52.382;9.752;2023-07-13T12:52:17;100774.13;;;27.97;44.35
72560;BME280;62987;52.382;9.752;2023-07-13T12:54:52;100787.25;;;26.80;53.26
72560;BME280;62987;52.382;9.752;2023-07-13T12:57:38;100794.03;;;26.26;57.89
72560;BME280;62987;52.382;9.752;2023-07-13T13:00:27;100793.00;;;25.49;63.09
72560;BME280;62987;52.382;9.752;2023-07-13T13:02:58;100797.16;;;25.00;66.31
72560;BME280;62987;52.382;9.752;2023-07-13T13:05:56;100800.22;;;24.43;69.98
72560;BME280;62987;52.382;9.752;2023-07-13T13:08:26;100808.31;;;23.69;100.00
72560;BME280;62987;52.382;9.752;2023-07-13T13:10:54;100866.72;;;21.10;100.00
72560;BME280;62987;52.382;9.752;2023-07-13T13:13:22;100851.22;;;20.03;100.00